Bath, Illinois
Current Conditions -  °F | °C
As of 4:15 PM on Thursday 23 Oct 2014 (Local Time) from KIJX Reporting Station
Broken Clouds Broken Clouds  
Wind Chill: 64°   Ceiling: 11000
Heat Index: 64°   Visibility: 10mi
Dew Point: 46°   Wind: 7mph
Humidity: 52%   Direction: 160°SSE
Pressure: 30.08"   Gusts: NA
Location:  40.19°N, 90.14°W
Report Text: KIJX 232115Z AUTO 16006KT 10SM SCT048 SCT060 BKN110 18/08 A3008 RMK AO2 T01780079
Loading
Personal Weather Stations






























Interactive Weather Map
Tropical Storm Tracking
New forecast layout! Learn more

10-Day Weather Forecast

Advertisements
Track Severe Weather on mobile